Time;durP1;ratioP1;P1;durP2;ratioP2;P2;SDS_P1;SDS_P2;PMS_P1;PMS_P2;Temp;Humidity;BMP_temperature;BMP_pressure;BME280_temperature;BME280_humidity;BME280_pressure;Samples;Min_cycle;Max_cycle;Signal;HPM_P1;HPM_P2
2021/03/10 00:00:32;;;;;;;31.85;8.88;;;-3.60;99.90;;;;;;4855054;28;20099;-78
2021/03/10 00:02:54;;;;;;;19.70;5.47;;;-3.60;99.90;;;;;;4858557;28;20113;-79
2021/03/10 00:05:17;;;;;;;21.63;6.53;;;-3.60;99.90;;;;;;4843815;28;20096;-78
2021/03/10 00:07:41;;;;;;;39.50;11.25;;;;;;;;;;4854934;28;20558;-79
2021/03/10 00:10:06;;;;;;;21.23;7.07;;;-3.90;99.90;;;;;;4853960;28;20150;-78
2021/03/10 00:12:29;;;;;;;;;;;-4.00;99.90;;;;;;4853767;28;20190;-78
2021/03/10 00:14:51;;;;;;;16.35;3.83;;;-4.00;99.90;;;;;;4846496;28;20497;-79
2021/03/10 00:17:14;;;;;;;9.13;3.10;;;-4.10;99.90;;;;;;4856120;28;20120;-79
2021/03/10 00:19:37;;;;;;;14.43;5.22;;;-4.10;99.90;;;;;;4854272;28;20096;-78
2021/03/10 00:21:59;;;;;;;17.88;5.57;;;-4.10;99.90;;;;;;4857007;28;20108;-79
2021/03/10 00:24:23;;;;;;;17.95;5.43;;;-4.00;99.90;;;;;;4854752;28;20097;-78
2021/03/10 00:26:45;;;;;;;18.27;6.32;;;-4.00;99.90;;;;;;4857823;28;20099;-78
2021/03/10 00:29:08;;;;;;;23.80;8.07;;;-4.10;99.90;;;;;;4854737;28;20106;-78
2021/03/10 00:31:30;;;;;;;18.50;6.30;;;-4.20;99.90;;;;;;4855950;28;20448;-77
2021/03/10 00:33:53;;;;;;;20.23;5.10;;;-4.30;99.90;;;;;;4850766;28;20137;-79
2021/03/10 00:36:15;;;;;;;8.60;3.95;;;-4.40;99.90;;;;;;4857850;28;20159;-79
2021/03/10 00:38:38;;;;;;;14.70;4.30;;;-4.40;99.90;;;;;;4853490;28;20682;-79
2021/03/10 00:41:01;;;;;;;8.82;3.20;;;-4.40;99.90;;;;;;4858369;28;20135;-78
2021/03/10 00:43:24;;;;;;;13.27;4.53;;;-4.30;99.90;;;;;;4861585;28;20702;-79
2021/03/10 00:45:47;;;;;;;10.50;3.80;;;-4.30;99.90;;;;;;4859210;28;20098;-79
2021/03/10 00:48:10;;;;;;;10.68;3.92;;;-4.00;99.90;;;;;;4858986;28;20579;-79
2021/03/10 00:50:32;;;;;;;12.30;3.38;;;-4.00;99.90;;;;;;4859725;28;20123;-80
2021/03/10 00:52:55;;;;;;;13.52;3.92;;;-4.00;99.90;;;;;;4856485;28;20106;-80
2021/03/10 00:55:18;;;;;;;7.75;3.25;;;-4.10;99.90;;;;;;4851372;28;20110;-77
2021/03/10 00:57:42;;;;;;;7.60;3.33;;;;;;;;;;4857567;28;20498;-79
2021/03/10 01:00:06;;;;;;;10.95;2.72;;;-4.20;99.90;;;;;;4860333;28;20141;-79
2021/03/10 01:02:29;;;;;;;8.07;3.22;;;-4.20;99.90;;;;;;4853458;28;20553;-79
2021/03/10 01:04:51;;;;;;;5.85;2.53;;;-4.20;99.90;;;;;;4854601;28;20555;-78
2021/03/10 01:07:14;;;;;;;8.18;3.25;;;-4.20;99.90;;;;;;4860425;28;20502;-79
2021/03/10 01:09:36;;;;;;;31.45;10.18;;;-4.20;99.90;;;;;;4856183;28;20089;-78
2021/03/10 01:11:59;;;;;;;70.18;18.75;;;-4.20;99.90;;;;;;4858518;28;20089;-79
2021/03/10 01:14:23;;;;;;;32.67;9.70;;;-4.20;99.90;;;;;;4859442;28;20094;-78
2021/03/10 01:16:46;;;;;;;37.63;11.73;;;;;;;;;;4855945;28;20104;-78
2021/03/10 01:19:08;;;;;;;15.95;6.57;;;-4.20;99.90;;;;;;4858721;28;20108;-77
2021/03/10 01:21:31;;;;;;;17.63;4.95;;;-4.20;99.90;;;;;;4852400;28;20102;-78
2021/03/10 01:23:54;;;;;;;11.23;4.18;;;-4.40;99.90;;;;;;4858479;28;20303;-79
2021/03/10 01:26:17;;;;;;;10.77;3.72;;;-4.30;99.90;;;;;;4858849;28;20106;-79
2021/03/10 01:28:40;;;;;;;12.32;4.50;;;-4.30;99.90;;;;;;4857288;28;20151;-79
2021/03/10 01:31:04;;;;;;;14.82;4.03;;;-4.30;99.90;;;;;;4859524;28;20137;-78
2021/03/10 01:33:26;;;;;;;9.95;4.22;;;-4.30;99.90;;;;;;4852384;28;20133;-78
2021/03/10 01:35:49;;;;;;;9.25;3.42;;;-4.40;99.90;;;;;;4857639;28;20109;-78
2021/03/10 01:38:11;;;;;;;13.23;3.88;;;-4.40;99.90;;;;;;4854769;28;20135;-79
2021/03/10 01:40:34;;;;;;;8.73;3.67;;;-4.40;99.90;;;;;;4853845;28;20505;-78
2021/03/10 01:43:01;;;;;;;9.02;3.90;;;-4.50;99.90;;;;;;4856267;28;20105;-78
2021/03/10 01:45:24;;;;;;;5.95;3.08;;;-4.60;99.90;;;;;;4856905;28;20091;-78
2021/03/10 01:47:52;;;;;;;12.05;4.05;;;-4.70;99.90;;;;;;4856650;28;20098;-78
2021/03/10 01:50:18;;;;;;;10.80;3.70;;;-4.80;99.90;;;;;;4856936;28;20188;-77
2021/03/10 01:52:41;;;;;;;5.90;3.20;;;-4.80;99.90;;;;;;4854100;28;20511;-77
2021/03/10 01:55:05;;;;;;;9.52;3.47;;;-4.80;99.90;;;;;;4852945;28;20531;-78
2021/03/10 01:57:27;;;;;;;11.35;4.07;;;-4.80;99.90;;;;;;4857781;28;20094;-78
2021/03/10 01:59:50;;;;;;;14.18;3.80;;;-4.70;99.90;;;;;;4856074;28;20102;-77
2021/03/10 02:02:13;;;;;;;13.00;3.85;;;-4.80;99.90;;;;;;4855690;28;20529;-77
2021/03/10 02:04:38;;;;;;;8.68;3.47;;;;;;;;;;4855377;28;20110;-78
2021/03/10 02:07:07;;;;;;;20.88;4.53;;;-4.70;99.90;;;;;;4857349;28;20103;-78
2021/03/10 02:09:45;;;;;;;12.27;3.50;;;-4.60;99.90;;;;;;4859129;28;20094;-78
2021/03/10 02:12:15;;;;;;;10.88;4.22;;;-4.60;99.90;;;;;;4857477;28;20809;-77
2021/03/10 02:14:45;;;;;;;12.05;3.58;;;-4.70;99.90;;;;;;4857434;28;20096;-79
2021/03/10 02:17:14;;;;;;;8.02;3.55;;;-4.70;99.90;;;;;;4857481;28;20105;-80
2021/03/10 02:20:07;;;;;;;15.77;3.40;;;-4.90;99.90;;;;;;4860715;28;20137;-77
2021/03/10 02:23:02;;;;;;;11.80;3.33;;;-5.20;99.90;;;;;;4850039;28;20188;-77
2021/03/10 02:25:39;;;;;;;6.97;2.83;;;-5.30;99.90;;;;;;4843988;28;20503;-78
2021/03/10 02:28:04;;;;;;;10.18;3.75;;;-5.40;99.90;;;;;;4858049;28;20117;-78
2021/03/10 02:30:28;;;;;;;;;;;-5.40;99.90;;;;;;4855678;28;20097;-77
2021/03/10 02:32:55;;;;;;;7.78;3.38;;;-5.30;99.90;;;;;;4860925;28;19975;-77
2021/03/10 02:35:18;;;;;;;8.70;3.00;;;-5.50;99.90;;;;;;4855638;28;20461;-78
2021/03/10 02:37:46;;;;;;;10.38;4.30;;;-5.50;99.90;;;;;;4857436;28;20107;-77
2021/03/10 02:40:11;;;;;;;5.30;2.17;;;-5.60;99.90;;;;;;4856677;28;21141;-77
2021/03/10 02:42:35;;;;;;;6.88;2.65;;;-5.70;99.90;;;;;;4852691;28;20114;-78
2021/03/10 02:45:00;;;;;;;7.25;2.90;;;-5.70;99.90;;;;;;4859083;28;20198;-78
2021/03/10 02:47:25;;;;;;;7.28;2.78;;;-5.70;99.90;;;;;;4854898;28;20135;-78
2021/03/10 02:49:48;;;;;;;5.78;2.67;;;-5.60;99.90;;;;;;4856633;28;20103;-78
2021/03/10 02:52:11;;;;;;;6.80;2.50;;;-5.60;99.90;;;;;;4857550;28;20102;-76
2021/03/10 02:54:36;;;;;;;8.95;3.28;;;-5.70;99.90;;;;;;4857208;28;20098;-77
2021/03/10 02:56:59;;;;;;;11.33;3.13;;;-5.70;99.90;;;;;;4853767;28;20115;-77
2021/03/10 02:59:21;;;;;;;8.13;2.67;;;-5.70;99.90;;;;;;4859290;28;20104;-78
2021/03/10 03:01:45;;;;;;;7.55;2.70;;;-5.70;99.90;;;;;;4857281;28;20102;-78
2021/03/10 03:04:08;;;;;;;9.27;3.13;;;-5.60;99.90;;;;;;4854513;28;20094;-77
2021/03/10 03:06:30;;;;;;;10.18;3.85;;;-5.50;99.90;;;;;;4855293;28;20476;-78
2021/03/10 03:08:54;;;;;;;8.82;3.17;;;-5.40;99.90;;;;;;4854436;28;20106;-78
2021/03/10 03:11:16;;;;;;;6.93;2.92;;;-5.30;99.90;;;;;;4855240;28;20137;-77
2021/03/10 03:13:39;;;;;;;13.77;3.38;;;-5.10;99.90;;;;;;4856597;28;20103;-77
2021/03/10 03:16:02;;;;;;;10.57;3.38;;;-5.00;99.90;;;;;;4855654;28;20094;-78
2021/03/10 03:18:26;;;;;;;12.15;4.95;;;-5.00;99.90;;;;;;4856864;28;20110;-76
2021/03/10 03:20:49;;;;;;;11.75;4.68;;;-4.90;99.90;;;;;;4856742;28;20148;-78
2021/03/10 03:23:12;;;;;;;10.50;4.03;;;-4.70;99.90;;;;;;4854526;28;20549;-77
2021/03/10 03:25:40;;;;;;;18.55;4.82;;;-4.70;99.90;;;;;;4849148;28;20098;-78
2021/03/10 03:28:06;;;;;;;11.63;4.90;;;-4.70;99.90;;;;;;4858241;28;20180;-79
2021/03/10 03:30:32;;;;;;;12.55;4.75;;;-4.70;99.90;;;;;;4858415;28;20132;-78
2021/03/10 03:32:56;;;;;;;17.17;5.00;;;-4.90;99.90;;;;;;4857758;28;20463;-78
2021/03/10 03:35:20;;;;;;;16.73;4.80;;;;;;;;;;4853988;28;20100;-78
2021/03/10 03:37:45;;;;;;;19.92;6.80;;;-4.70;99.90;;;;;;4856196;28;20151;-78
2021/03/10 03:40:09;;;;;;;26.52;5.97;;;-4.80;99.90;;;;;;4858514;28;20107;-78
2021/03/10 03:42:31;;;;;;;12.20;5.13;;;-4.90;99.90;;;;;;4855579;28;20129;-78
2021/03/10 03:44:54;;;;;;;19.63;6.15;;;-4.90;99.90;;;;;;4856345;28;20098;-78
2021/03/10 03:47:17;;;;;;;9.95;4.68;;;-4.90;99.90;;;;;;4851888;28;20147;-77
2021/03/10 03:49:42;;;;;;;14.98;5.28;;;-5.00;99.90;;;;;;4858294;28;20534;-78
2021/03/10 03:52:06;;;;;;;15.85;5.53;;;;;;;;;;4856184;28;20133;-77
2021/03/10 03:54:28;;;;;;;13.07;5.07;;;-5.20;99.90;;;;;;4853693;28;20462;-77
2021/03/10 03:56:51;;;;;;;8.70;4.45;;;-5.20;99.90;;;;;;4857819;28;20092;-77
2021/03/10 03:59:13;;;;;;;9.43;4.57;;;-5.20;99.90;;;;;;4858878;28;20110;-77
2021/03/10 04:01:36;;;;;;;16.75;6.57;;;-5.20;99.90;;;;;;4850435;28;20102;-77
2021/03/10 04:03:59;;;;;;;13.88;5.30;;;-5.10;99.90;;;;;;4857705;28;20137;-77
2021/03/10 04:06:21;;;;;;;18.10;5.97;;;-5.00;99.90;;;;;;4857046;28;20097;-77
2021/03/10 04:08:46;;;;;;;16.50;6.40;;;-5.00;99.90;;;;;;4854079;28;20110;-77
2021/03/10 04:11:09;;;;;;;28.75;7.25;;;-5.10;99.90;;;;;;4854095;28;20164;-78
2021/03/10 04:13:32;;;;;;;17.38;6.10;;;-5.20;99.90;;;;;;4852273;28;20742;-78
2021/03/10 04:15:54;;;;;;;18.85;6.28;;;-5.30;99.90;;;;;;4855123;28;20106;-78
2021/03/10 04:18:17;;;;;;;18.60;7.60;;;-5.20;99.90;;;;;;4850962;28;20100;-77
2021/03/10 04:20:40;;;;;;;15.32;6.35;;;-5.00;99.90;;;;;;4854844;28;20107;-78
2021/03/10 04:23:03;;;;;;;28.15;6.55;;;-5.10;99.90;;;;;;4850326;28;20094;-77
2021/03/10 04:25:26;;;;;;;24.42;7.32;;;;;;;;;;4854844;28;20127;-77
2021/03/10 04:27:49;;;;;;;20.77;7.20;;;-4.90;99.90;;;;;;4854403;28;20507;-78
2021/03/10 04:30:14;;;;;;;18.38;7.43;;;-4.90;99.90;;;;;;4847262;28;20562;-77
2021/03/10 04:32:37;;;;;;;16.67;6.32;;;-4.90;99.90;;;;;;4848547;28;20112;-78
2021/03/10 04:35:00;;;;;;;22.00;7.05;;;-4.90;99.90;;;;;;4848687;28;20113;-79
2021/03/10 04:37:22;;;;;;;13.25;5.22;;;-5.10;99.90;;;;;;4855843;28;20178;-76
2021/03/10 04:39:45;;;;;;;17.63;6.18;;;-5.10;99.90;;;;;;4855941;28;20107;-76
2021/03/10 04:42:10;;;;;;;12.38;4.65;;;-5.30;99.90;;;;;;4858948;28;20565;-77
2021/03/10 04:44:32;;;;;;;10.48;5.13;;;-5.50;99.90;;;;;;4855656;28;20111;-77
2021/03/10 04:46:55;;;;;;;11.10;4.57;;;;;;;;;;4855925;28;20554;-77
2021/03/10 04:49:17;;;;;;;18.15;5.25;;;-5.60;99.90;;;;;;4857037;28;20147;-77
2021/03/10 04:51:40;;;;;;;15.63;5.18;;;-5.60;99.90;;;;;;4847551;28;20553;-77
2021/03/10 04:54:02;;;;;;;20.02;5.57;;;-5.50;99.90;;;;;;4849564;28;20103;-77
2021/03/10 04:56:25;;;;;;;12.95;4.88;;;-5.50;99.90;;;;;;4852398;28;20111;-77
2021/03/10 04:58:49;;;;;;;27.20;6.38;;;-5.60;99.90;;;;;;4854931;28;20446;-77
2021/03/10 05:01:12;;;;;;;26.38;6.53;;;-5.50;99.90;;;;;;4847382;28;20115;-78
2021/03/10 05:03:34;;;;;;;20.25;6.75;;;-5.50;99.90;;;;;;4847723;28;20207;-76
2021/03/10 05:05:58;;;;;;;18.15;5.15;;;-5.50;99.90;;;;;;4853654;28;20125;-78
2021/03/10 05:08:20;;;;;;;14.00;6.13;;;-5.60;99.90;;;;;;4856559;28;20122;-78
2021/03/10 05:10:43;;;;;;;17.15;5.95;;;-5.70;99.90;;;;;;4855261;28;20108;-78
2021/03/10 05:13:05;;;;;;;21.23;6.15;;;-5.60;99.90;;;;;;4852862;28;20129;-76
2021/03/10 05:15:29;;;;;;;16.85;5.32;;;-5.60;99.90;;;;;;4858253;28;20103;-78
2021/03/10 05:17:52;;;;;;;20.30;6.28;;;-5.60;99.90;;;;;;4853402;28;20102;-77
2021/03/10 05:20:15;;;;;;;29.05;7.18;;;;;;;;;;4857372;28;20103;-77
2021/03/10 05:22:37;;;;;;;24.52;6.00;;;-5.60;99.90;;;;;;4852246;28;20103;-77
2021/03/10 05:25:00;;;;;;;16.48;6.00;;;-5.50;99.90;;;;;;4855033;28;20108;-77
2021/03/10 05:27:24;;;;;;;17.65;6.50;;;-5.50;99.90;;;;;;4857805;28;20497;-77
2021/03/10 05:29:47;;;;;;;20.48;6.25;;;-5.50;99.90;;;;;;4860490;28;20134;-77
2021/03/10 05:32:11;;;;;;;16.60;5.72;;;-5.60;99.90;;;;;;4857047;28;20103;-77
2021/03/10 05:34:33;;;;;;;20.37;6.43;;;-5.70;99.90;;;;;;4858982;28;20107;-77
2021/03/10 05:36:56;;;;;;;18.63;6.47;;;-5.70;99.90;;;;;;4862719;28;20110;-78
2021/03/10 05:39:18;;;;;;;16.83;5.95;;;-5.80;99.90;;;;;;4859052;28;20107;-78
2021/03/10 05:41:41;;;;;;;19.70;5.75;;;-6.10;99.90;;;;;;4855916;28;20107;-77
2021/03/10 05:44:04;;;;;;;15.75;4.97;;;-6.10;99.90;;;;;;4859524;28;20095;-77
2021/03/10 05:46:27;;;;;;;17.25;6.45;;;-6.20;99.90;;;;;;4860002;28;20566;-77
2021/03/10 05:48:52;;;;;;;19.63;5.72;;;;;;;;;;4860829;28;20112;-76
2021/03/10 05:51:14;;;;;;;15.15;6.00;;;-5.90;99.90;;;;;;4854955;28;20130;-78
2021/03/10 05:53:42;;;;;;;25.90;7.97;;;-5.70;99.90;;;;;;4857067;28;20514;-78
2021/03/10 05:56:05;;;;;;;24.27;7.32;;;-5.70;99.90;;;;;;4854196;28;20593;-78
2021/03/10 05:58:28;;;;;;;23.52;7.32;;;-5.60;99.90;;;;;;4856710;28;20505;-78
2021/03/10 06:00:50;;;;;;;16.95;6.53;;;-3.60;99.90;;;;;;4857026;28;25304;-77
2021/03/10 06:03:14;;;;;;;22.42;8.35;;;-5.50;99.90;;;;;;4855243;28;20176;-77
2021/03/10 06:05:37;;;;;;;25.73;7.68;;;-5.40;99.90;;;;;;4856323;28;20466;-76
2021/03/10 06:08:01;;;;;;;19.50;7.90;;;-5.30;99.90;;;;;;4856458;28;20624;-77
2021/03/10 06:10:23;;;;;;;31.67;7.68;;;-5.20;99.90;;;;;;4855016;28;20184;-76
2021/03/10 06:12:47;;;;;;;28.60;8.70;;;-5.10;99.90;;;;;;4858485;28;20100;-77
2021/03/10 06:15:11;;;;;;;28.58;8.48;;;-4.80;99.90;;;;;;4854567;28;20164;-77
2021/03/10 06:17:48;;;;;;;20.25;8.27;;;-4.40;99.90;;;;;;4842241;28;20106;-77
2021/03/10 06:20:22;;;;;;;23.33;9.00;;;-3.80;99.90;;;;;;4852289;28;20537;-77
2021/03/10 06:22:46;;;;;;;26.92;8.50;;;-3.30;99.90;;;;;;4858299;28;20123;-79
2021/03/10 06:25:09;;;;;;;23.80;8.90;;;-3.00;99.90;;;;;;4857006;28;20104;-77
2021/03/10 06:27:31;;;;;;;24.67;8.90;;;-2.70;99.90;;;;;;4852565;28;20114;-77
2021/03/10 06:29:58;;;;;;;29.95;9.27;;;-2.50;99.90;;;;;;4854097;28;20103;-76
2021/03/10 06:32:20;;;;;;;35.42;10.88;;;;;;;;;;4855658;28;20111;-76
2021/03/10 06:34:43;;;;;;;34.72;8.80;;;-2.30;99.90;;;;;;4855610;28;20098;-77
2021/03/10 06:37:06;;;;;;;30.60;8.35;;;-2.20;99.90;;;;;;4854926;28;20097;-77
2021/03/10 06:39:31;;;;;;;26.60;8.27;;;-2.10;99.90;;;;;;4850352;28;20099;-77
2021/03/10 06:41:55;;;;;;;33.33;10.23;;;-1.50;99.90;;;;;;4852280;28;20089;-77
2021/03/10 06:44:20;;;;;;;36.17;8.90;;;-0.20;99.90;;;;;;4853115;28;20122;-78
2021/03/10 06:46:54;;;;;;;23.35;8.00;;;1.20;99.90;;;;;;4857502;28;20095;-79
2021/03/10 06:49:17;;;;;;;20.25;6.75;;;3.30;99.90;;;;;;4858152;28;20511;-77
2021/03/10 06:51:51;;;;;;;25.27;7.85;;;5.10;99.90;;;;;;4856097;28;20122;-78
2021/03/10 06:54:16;;;;;;;25.50;8.50;;;6.20;99.90;;;;;;4854684;28;20404;-78
2021/03/10 06:56:42;;;;;;;30.48;11.10;;;7.50;99.90;;;;;;4858097;28;20116;-78
2021/03/10 06:59:06;;;;;;;29.08;9.25;;;9.20;99.90;;;;;;4854523;28;20086;-80
2021/03/10 07:01:37;;;;;;;40.78;12.73;;;9.70;99.90;;;;;;4859140;28;20084;-80
2021/03/10 07:04:00;;;;;;;39.22;11.82;;;9.90;99.90;;;;;;4857428;28;20087;-80
2021/03/10 07:06:24;;;;;;;40.33;15.30;;;10.30;99.30;;;;;;4855138;28;20049;-80
2021/03/10 07:08:48;;;;;;;33.90;11.15;;;11.10;95.50;;;;;;4859298;28;20049;-80
2021/03/10 07:11:12;;;;;;;39.25;11.27;;;11.30;94.00;;;;;;4852144;28;20091;-81
2021/03/10 07:13:36;;;;;;;30.48;11.45;;;12.00;92.50;;;;;;4846831;28;20049;-81
2021/03/10 07:15:59;;;;;;;33.53;10.80;;;12.50;88.30;;;;;;4866567;28;20406;-82
2021/03/10 07:18:25;;;;;;;28.77;9.70;;;12.70;85.70;;;;;;4852019;28;20041;-79
2021/03/10 07:20:48;;;;;;;32.15;10.38;;;12.30;85.30;;;;;;4854174;28;20461;-81
2021/03/10 07:23:14;;;;;;;28.77;9.88;;;11.50;88.30;;;;;;4861471;28;20083;-79
2021/03/10 07:25:41;;;;;;;;;;;11.50;89.40;;;;;;4856828;28;20555;-81
2021/03/10 07:28:11;;;;;;;27.02;8.57;;;11.10;84.50;;;;;;4857795;28;19921;-80
2021/03/10 07:30:37;;;;;;;24.27;9.00;;;9.60;87.50;;;;;;4857705;28;20389;-82
2021/03/10 07:33:08;;;;;;;22.83;8.60;;;10.20;90.10;;;;;;4859642;28;20076;-80
2021/03/10 07:35:30;;;;;;;25.65;8.77;;;10.50;88.50;;;;;;4859145;28;20524;-82
2021/03/10 07:37:54;;;;;;;28.83;9.32;;;11.40;85.80;;;;;;4855249;28;20122;-81
2021/03/10 07:40:17;;;;;;;25.48;8.05;;;12.10;83.40;;;;;;4858194;28;20056;-85
2021/03/10 07:42:52;;;;;;;38.85;9.55;;;12.20;84.10;;;;;;4857265;28;20050;-82
2021/03/10 07:45:16;;;;;;;27.70;9.48;;;12.90;82.50;;;;;;4857694;28;20041;-82
2021/03/10 07:47:53;;;;;;;29.60;9.10;;;13.90;79.80;;;;;;4852278;28;20412;-80
2021/03/10 07:50:15;;;;;;;33.53;9.32;;;14.40;70.60;;;;;;4853978;28;20054;-80
2021/03/10 07:52:50;;;;;;;39.90;10.90;;;14.70;68.20;;;;;;4850568;28;22023;-83
2021/03/10 07:55:13;;;;;;;19.55;8.20;;;14.60;66.40;;;;;;4845102;28;20389;-80
2021/03/10 07:57:36;;;;;;;21.38;8.07;;;13.70;67.70;;;;;;4854206;28;20052;-87
2021/03/10 08:00:02;;;;;;;28.40;8.73;;;13.40;70.50;;;;;;4854894;28;20045;-81
2021/03/10 08:02:27;;;;;;;21.08;8.00;;;12.50;73.30;;;;;;4854271;28;20170;-83
2021/03/10 08:04:59;;;;;;;22.10;8.95;;;11.80;73.80;;;;;;4842866;28;20081;-81
2021/03/10 08:07:22;;;;;;;38.03;8.07;;;11.60;75.00;;;;;;4852615;28;20503;-83
2021/03/10 08:09:51;;;;;;;23.38;8.10;;;11.40;72.90;;;;;;4852162;28;20481;-84
2021/03/10 08:12:13;;;;;;;23.75;7.10;;;12.10;75.50;;;;;;4853920;28;20072;-82
2021/03/10 08:14:38;;;;;;;28.15;8.15;;;12.00;75.40;;;;;;4852218;28;20083;-84
2021/03/10 08:17:01;;;;;;;17.57;6.67;;;;;;;;;;4851542;28;20409;-82
2021/03/10 08:19:25;;;;;;;23.90;8.38;;;11.20;78.50;;;;;;4853007;28;20508;-80
2021/03/10 08:21:52;;;;;;;27.23;7.97;;;11.60;78.80;;;;;;4858286;28;20091;-81
2021/03/10 08:24:15;;;;;;;21.02;7.63;;;11.60;76.40;;;;;;4853406;28;20137;-84
2021/03/10 08:26:41;;;;;;;19.98;6.97;;;11.50;77.90;;;;;;4851588;28;20089;-83
2021/03/10 08:29:04;;;;;;;17.75;6.70;;;11.10;79.00;;;;;;4856757;28;20087;-80
2021/03/10 08:31:27;;;;;;;23.45;6.85;;;11.50;78.60;;;;;;4854553;28;20443;-80
2021/03/10 08:33:51;;;;;;;25.27;6.75;;;11.40;79.60;;;;;;4850165;28;20089;-82
2021/03/10 08:36:14;;;;;;;19.02;6.15;;;11.30;78.90;;;;;;4851212;28;20092;-86
2021/03/10 08:38:38;;;;;;;21.25;6.90;;;11.50;79.50;;;;;;4848345;28;20086;-82
2021/03/10 08:41:05;;;;;;;18.17;6.43;;;11.60;80.40;;;;;;4847971;28;20444;-80
2021/03/10 08:43:27;;;;;;;18.63;6.63;;;11.40;79.10;;;;;;4857041;28;20085;-81
2021/03/10 08:45:50;;;;;;;18.92;6.55;;;12.10;78.80;;;;;;4854933;28;20139;-81
2021/03/10 08:48:15;;;;;;;20.33;6.93;;;12.00;74.30;;;;;;4852968;28;20209;-80
2021/03/10 08:50:39;;;;;;;15.32;5.53;;;11.50;76.90;;;;;;4859513;28;20090;-81
2021/03/10 08:53:05;;;;;;;14.63;5.07;;;11.70;75.10;;;;;;4860067;28;20086;-81
2021/03/10 08:55:28;;;;;;;;;;;11.80;73.70;;;;;;4856544;28;20295;-81
2021/03/10 08:57:51;;;;;;;21.95;6.03;;;11.80;73.90;;;;;;4848429;28;20011;-81
2021/03/10 09:00:21;;;;;;;19.80;5.97;;;11.70;72.90;;;;;;4854458;28;20108;-82
2021/03/10 09:02:48;;;;;;;17.38;6.90;;;12.00;73.60;;;;;;4820779;28;20089;-79
2021/03/10 09:05:25;;;;;;;18.65;7.25;;;12.20;73.30;;;;;;4815277;28;21338;-80
2021/03/10 09:08:23;;;;;;;21.65;6.28;;;11.50;73.50;;;;;;4810578;28;20089;-80
2021/03/10 09:11:06;;;;;;;31.00;7.55;;;11.40;74.10;;;;;;4814422;28;20093;-80
2021/03/10 09:14:02;;;;;;;18.63;6.03;;;11.60;74.70;;;;;;4806301;28;20092;-80
2021/03/10 09:16:50;;;;;;;16.88;5.07;;;11.50;71.50;;;;;;4826648;28;20124;-80
2021/03/10 09:19:54;;;;;;;17.98;5.55;;;11.70;72.90;;;;;;4815675;28;20089;-82
2021/03/10 09:23:00;;;;;;;28.38;5.80;;;11.40;70.30;;;;;;4802633;28;20090;-81
2021/03/10 09:25:28;;;;;;;21.90;5.03;;;11.20;70.40;;;;;;4809056;28;20085;-81
2021/03/10 09:28:06;;;;;;;13.07;4.25;;;11.00;72.90;;;;;;4805269;28;20184;-79
2021/03/10 09:30:37;;;;;;;23.48;6.13;;;10.90;72.30;;;;;;4853706;28;20090;-81
2021/03/10 09:33:00;;;;;;;12.55;4.53;;;10.20;75.50;;;;;;4806662;28;20124;-81
2021/03/10 09:35:28;;;;;;;11.85;5.10;;;9.80;75.40;;;;;;4827031;28;20079;-81
2021/03/10 09:38:26;;;;;;;12.77;4.18;;;9.20;76.50;;;;;;4812655;28;20083;-80
2021/03/10 09:41:02;;;;;;;20.35;4.70;;;8.90;76.80;;;;;;4799601;28;20087;-80
2021/03/10 09:43:29;;;;;;;12.65;3.20;;;8.50;76.00;;;;;;4799862;28;20105;-80
2021/03/10 09:46:11;;;;;;;9.95;3.35;;;8.10;73.50;;;;;;4826131;28;20534;-80
2021/03/10 09:52:00;;;;;;;7.47;2.92;;;7.00;75.50;;;;;;4798361;28;20638;-79
2021/03/10 09:54:27;;;;;;;11.32;3.50;;;6.60;76.70;;;;;;4802129;28;20084;-78
2021/03/10 09:57:03;;;;;;;9.07;2.80;;;6.40;77.00;;;;;;4805073;28;20084;-80
2021/03/10 10:00:18;;;;;;;11.13;2.95;;;6.20;78.40;;;;;;4804313;28;20845;-80
2021/03/10 10:03:12;;;;;;;8.15;2.70;;;6.40;79.60;;;;;;4794549;28;20095;-80
2021/03/10 10:06:30;;;;;;;11.32;3.13;;;6.30;74.70;;;;;;4791197;28;20089;-78
2021/03/10 10:08:54;;;;;;;13.15;3.45;;;6.30;80.00;;;;;;4801839;28;20115;-78
2021/03/10 10:11:31;;;;;;;10.43;3.83;;;6.40;80.90;;;;;;4810822;28;20489;-78
2021/03/10 10:14:09;;;;;;;18.48;4.15;;;6.10;77.90;;;;;;4817358;28;20188;-79
2021/03/10 10:33:48;;;;;;;8.60;1.92;;;6.30;78.10;;;;;;4837491;28;20547;-77
2021/03/10 10:36:41;;;;;;;3.72;1.55;;;6.30;73.40;;;;;;4848231;27;20083;-76
2021/03/10 10:39:27;;;;;;;9.20;2.20;;;6.20;76.10;;;;;;4838611;28;20141;-76
2021/03/10 10:41:56;;;;;;;7.28;2.35;;;6.20;76.20;;;;;;4856822;27;22250;-78
2021/03/10 10:44:55;;;;;;;8.90;2.22;;;6.00;76.70;;;;;;4871813;28;20617;-79
2021/03/10 10:48:00;;;;;;;4.70;2.10;;;6.00;78.20;;;;;;4834739;28;20087;-78
2021/03/10 10:50:55;;;;;;;12.05;2.85;;;5.80;75.20;;;;;;4849416;28;20507;-77
2021/03/10 10:53:32;;;;;;;7.88;2.03;;;5.60;74.70;;;;;;4831487;28;20534;-78
2021/03/10 10:55:54;;;;;;;8.27;2.15;;;5.80;74.50;;;;;;4903806;27;20091;-78
2021/03/10 10:58:18;;;;;;;7.70;2.67;;;5.80;74.30;;;;;;4907009;27;20098;-79
2021/03/10 11:00:41;;;;;;;10.65;2.40;;;5.80;76.20;;;;;;4893093;27;20538;-79
2021/03/10 11:03:05;;;;;;;10.93;2.80;;;5.80;77.80;;;;;;4897570;28;20526;-79
2021/03/10 11:05:27;;;;;;;13.25;2.75;;;5.70;78.20;;;;;;4896125;28;20091;-78
2021/03/10 11:07:50;;;;;;;7.28;2.28;;;;;;;;;;4902390;28;20106;-78
2021/03/10 11:10:13;;;;;;;9.95;3.17;;;;;;;;;;4903816;28;20090;-80
2021/03/10 11:12:35;;;;;;;9.15;3.03;;;5.70;78.80;;;;;;4906934;28;20103;-79
2021/03/10 11:14:58;;;;;;;7.88;2.70;;;5.60;78.10;;;;;;4902953;28;20087;-79
2021/03/10 11:17:20;;;;;;;6.25;2.97;;;5.80;80.10;;;;;;4906441;28;20513;-78
2021/03/10 11:19:44;;;;;;;9.50;2.72;;;5.90;77.10;;;;;;4902762;28;20099;-79
2021/03/10 11:22:07;;;;;;;4.78;2.10;;;6.00;77.70;;;;;;4905779;28;20469;-78
2021/03/10 11:24:29;;;;;;;11.93;3.35;;;5.90;78.50;;;;;;4904612;28;20083;-79
2021/03/10 11:26:52;;;;;;;8.20;3.22;;;6.00;79.80;;;;;;4903478;28;21933;-78
2021/03/10 11:29:14;;;;;;;8.10;2.38;;;6.00;78.20;;;;;;4903023;28;20122;-77
2021/03/10 11:31:37;;;;;;;6.40;2.22;;;6.20;78.40;;;;;;4906235;28;20112;-79
2021/03/10 11:34:00;;;;;;;8.45;2.70;;;6.20;79.50;;;;;;4907376;28;20098;-77
2021/03/10 11:36:23;;;;;;;5.30;1.90;;;6.10;76.60;;;;;;4903718;28;20546;-78
2021/03/10 11:38:46;;;;;;;4.97;2.03;;;5.80;71.60;;;;;;4904909;28;20117;-78
2021/03/10 11:41:12;;;;;;;3.75;1.92;;;5.80;76.60;;;;;;4889497;28;20088;-77
2021/03/10 11:43:34;;;;;;;4.32;1.55;;;5.80;72.40;;;;;;4891559;28;20087;-78
2021/03/10 11:45:58;;;;;;;8.75;1.85;;;5.90;72.30;;;;;;4891324;28;20095;-76
2021/03/10 11:48:21;;;;;;;5.85;1.35;;;5.90;72.40;;;;;;4893481;28;20092;-83
2021/03/10 11:50:44;;;;;;;4.35;1.90;;;6.00;72.40;;;;;;4889428;28;20331;-77
2021/03/10 11:53:07;;;;;;;4.65;2.03;;;6.20;73.30;;;;;;4888011;28;20111;-80
2021/03/10 11:55:30;;;;;;;4.88;1.80;;;6.10;69.80;;;;;;4891460;28;20095;-78
2021/03/10 11:57:52;;;;;;;6.80;2.00;;;6.30;73.90;;;;;;4892734;28;20095;-78
2021/03/10 12:00:15;;;;;;;6.78;2.03;;;6.40;72.00;;;;;;4891134;28;20095;-78
2021/03/10 12:02:38;;;;;;;5.57;2.10;;;6.60;73.30;;;;;;4891604;28;20118;-77
2021/03/10 12:05:00;;;;;;;5.00;2.25;;;6.80;72.00;;;;;;4890505;28;20094;-78
2021/03/10 12:07:23;;;;;;;6.35;1.77;;;6.80;70.30;;;;;;4890929;28;20110;-81
2021/03/10 12:09:47;;;;;;;4.95;1.85;;;6.70;71.30;;;;;;4891599;28;20091;-77
2021/03/10 12:12:10;;;;;;;4.28;1.70;;;6.80;71.40;;;;;;4892598;28;21095;-79
2021/03/10 12:14:32;;;;;;;3.65;2.10;;;6.90;71.50;;;;;;4892730;28;20083;-78
2021/03/10 12:16:55;;;;;;;6.35;2.47;;;6.90;68.80;;;;;;4889640;28;20099;-78
2021/03/10 12:19:18;;;;;;;5.32;2.25;;;6.70;68.10;;;;;;4891265;28;20098;-78
2021/03/10 12:21:40;;;;;;;6.45;2.10;;;6.60;70.00;;;;;;4893055;28;20103;-78
2021/03/10 12:24:03;;;;;;;8.05;2.58;;;6.60;70.00;;;;;;4892196;28;20100;-81
2021/03/10 12:26:29;;;;;;;13.00;2.42;;;6.60;74.30;;;;;;4888807;28;20091;-80
2021/03/10 12:28:52;;;;;;;4.43;2.05;;;6.60;73.10;;;;;;4891644;28;20110;-78
2021/03/10 12:31:15;;;;;;;8.60;2.47;;;6.60;74.90;;;;;;4889710;28;20099;-81
2021/03/10 12:33:38;;;;;;;6.95;2.42;;;6.50;74.50;;;;;;4892713;28;20565;-81
2021/03/10 12:36:01;;;;;;;20.83;3.88;;;6.30;73.20;;;;;;4891701;28;20102;-79
2021/03/10 12:38:23;;;;;;;6.10;2.08;;;6.10;72.90;;;;;;4891781;28;20095;-80
2021/03/10 12:40:46;;;;;;;5.72;2.50;;;6.10;74.60;;;;;;4886435;28;20083;-82
2021/03/10 12:43:09;;;;;;;7.50;2.13;;;6.20;73.90;;;;;;4891814;28;20145;-80
2021/03/10 12:45:32;;;;;;;5.97;2.47;;;6.20;74.00;;;;;;4891222;28;20090;-84
2021/03/10 12:47:54;;;;;;;6.47;2.13;;;6.20;71.70;;;;;;4890702;28;20087;-84
2021/03/10 12:50:17;;;;;;;6.60;2.05;;;6.30;72.00;;;;;;4890019;28;20099;-80
2021/03/10 12:52:39;;;;;;;3.80;2.05;;;6.20;69.50;;;;;;4888180;28;20153;-82
2021/03/10 12:55:02;;;;;;;4.75;2.15;;;6.20;72.10;;;;;;4892319;28;20144;-78
2021/03/10 12:57:25;;;;;;;8.02;2.50;;;6.20;75.30;;;;;;4890954;28;20451;-78
2021/03/10 12:59:48;;;;;;;13.10;2.67;;;6.20;74.80;;;;;;4890172;28;20102;-78
2021/03/10 13:02:11;;;;;;;4.57;1.88;;;6.10;69.90;;;;;;4888241;28;20109;-78